Time;durP1;ratioP1;P1;durP2;ratioP2;P2;SDS_P1;SDS_P2;PMS_P1;PMS_P2;Temp;Humidity;BMP_temperature;BMP_pressure;BME280_temperature;BME280_humidity;BME280_pressure;Samples;Min_cycle;Max_cycle;Signal;HPM_P1;HPM_P2
2021/09/05 00:01:44;;;;;;;3.00;1.58;;;17.30;99.90;;;;;;5093560;28;20792;-61
2021/09/05 00:04:11;;;;;;;3.88;1.50;;;17.30;99.90;;;;;;5094006;28;20455;-61
2021/09/05 00:06:37;;;;;;;2.30;1.40;;;17.30;99.90;;;;;;5094353;28;20429;-61
2021/09/05 00:09:05;;;;;;;3.00;1.70;;;17.30;99.90;;;;;;5094022;28;20421;-61
2021/09/05 00:11:31;;;;;;;2.70;1.80;;;17.40;99.90;;;;;;5094533;28;20429;-61
2021/09/05 00:13:58;;;;;;;2.60;1.50;;;17.40;99.90;;;;;;5094321;28;20424;-61
2021/09/05 00:16:27;;;;;;;4.30;1.83;;;17.30;99.90;;;;;;5094616;28;20728;-61
2021/09/05 00:18:54;;;;;;;2.97;1.40;;;17.30;99.90;;;;;;5094919;28;20448;-61
2021/09/05 00:21:20;;;;;;;2.90;1.70;;;17.40;99.90;;;;;;5093024;28;20422;-61
2021/09/05 00:23:47;;;;;;;3.20;2.00;;;17.40;99.90;;;;;;5093275;28;20928;-61
2021/09/05 00:26:14;;;;;;;3.08;2.25;;;17.40;99.90;;;;;;5092941;28;20421;-61
2021/09/05 00:28:41;;;;;;;3.38;2.00;;;17.30;99.90;;;;;;5092220;28;20424;-61
2021/09/05 00:31:08;;;;;;;2.80;1.85;;;17.20;99.90;;;;;;5091430;28;20432;-61
2021/09/05 00:33:38;;;;;;;3.60;2.10;;;17.10;99.90;;;;;;5094944;28;20413;-61
2021/09/05 00:36:05;;;;;;;2.70;1.88;;;17.10;99.90;;;;;;5097669;28;20444;-61
2021/09/05 00:38:32;;;;;;;2.50;1.80;;;17.00;99.90;;;;;;5097568;28;20917;-61
2021/09/05 00:40:59;;;;;;;2.20;1.47;;;16.90;99.90;;;;;;5097483;28;20429;-61
2021/09/05 00:43:26;;;;;;;2.47;1.73;;;16.90;99.90;;;;;;5097887;28;20841;-60
2021/09/05 00:45:53;;;;;;;2.40;1.70;;;16.90;99.90;;;;;;5098383;28;20507;-61
2021/09/05 00:48:19;;;;;;;2.67;1.80;;;16.90;99.90;;;;;;5096838;28;20417;-61
2021/09/05 00:50:48;;;;;;;3.38;2.20;;;17.00;99.90;;;;;;5098125;28;20429;-61
2021/09/05 00:53:16;;;;;;;3.20;1.70;;;17.10;99.90;;;;;;5098268;28;20504;-61
2021/09/05 00:55:43;;;;;;;4.05;2.00;;;17.20;99.90;;;;;;5098075;28;20452;-61
2021/09/05 00:58:10;;;;;;;3.15;2.03;;;17.30;99.90;;;;;;5097979;28;20428;-60
2021/09/05 01:00:37;;;;;;;2.72;2.03;;;17.30;99.90;;;;;;5097970;28;20516;-61
2021/09/05 01:03:04;;;;;;;3.30;2.00;;;17.30;99.90;;;;;;5097221;28;20418;-61
2021/09/05 01:05:31;;;;;;;3.05;1.80;;;17.40;99.90;;;;;;5097947;28;20426;-61
2021/09/05 01:08:00;;;;;;;3.40;1.60;;;17.30;99.90;;;;;;5098303;28;20421;-61
2021/09/05 01:10:27;;;;;;;2.63;1.75;;;17.20;99.90;;;;;;5096416;28;20457;-60
2021/09/05 01:12:54;;;;;;;2.47;1.60;;;17.20;99.90;;;;;;5097277;28;20926;-61
2021/09/05 01:15:21;;;;;;;3.22;1.40;;;17.10;99.90;;;;;;5098275;28;20847;-61
2021/09/05 01:17:48;;;;;;;2.20;1.50;;;17.00;99.90;;;;;;5098252;28;20417;-61
2021/09/05 01:20:14;;;;;;;3.70;2.17;;;17.00;99.90;;;;;;5097926;28;20424;-61
2021/09/05 01:22:41;;;;;;;3.00;1.50;;;17.00;99.90;;;;;;5095875;28;20426;-61
2021/09/05 01:25:11;;;;;;;2.42;1.88;;;17.00;99.90;;;;;;5097064;28;20432;-61
2021/09/05 01:27:39;;;;;;;2.70;1.70;;;17.00;99.90;;;;;;5096024;28;20829;-61
2021/09/05 01:30:07;;;;;;;2.58;1.60;;;17.00;99.90;;;;;;5097829;28;20462;-60
2021/09/05 01:32:34;;;;;;;2.53;1.83;;;16.90;99.90;;;;;;5097193;28;20794;-61
2021/09/05 01:35:02;;;;;;;2.10;1.60;;;16.80;99.90;;;;;;5097790;28;20416;-61
2021/09/05 01:37:29;;;;;;;2.00;1.50;;;16.70;99.90;;;;;;5097316;28;20764;-61
2021/09/05 01:39:56;;;;;;;2.53;1.60;;;16.60;99.90;;;;;;5097519;28;20426;-61
2021/09/05 01:42:23;;;;;;;1.90;1.40;;;16.60;99.90;;;;;;5097725;28;20520;-61
2021/09/05 01:44:51;;;;;;;2.67;1.40;;;16.60;99.90;;;;;;5095942;28;20426;-61
2021/09/05 01:47:18;;;;;;;3.28;1.70;;;16.60;99.90;;;;;;5097466;28;20851;-62
2021/09/05 01:49:45;;;;;;;2.30;1.48;;;16.60;99.90;;;;;;5097574;28;20718;-61
2021/09/05 01:52:12;;;;;;;3.00;1.90;;;16.50;99.90;;;;;;5097260;28;20425;-61
2021/09/05 01:54:39;;;;;;;3.63;1.92;;;16.50;99.90;;;;;;5097790;28;20414;-60
2021/09/05 01:57:06;;;;;;;2.40;1.53;;;16.50;99.90;;;;;;5096401;28;20426;-61
2021/09/05 01:59:33;;;;;;;2.55;1.85;;;16.60;99.90;;;;;;5096412;28;20417;-61
2021/09/05 02:02:01;;;;;;;3.20;1.60;;;16.70;99.90;;;;;;5096867;28;20432;-61
2021/09/05 02:04:28;;;;;;;2.35;1.90;;;16.70;99.90;;;;;;5096784;28;20495;-61
2021/09/05 02:06:55;;;;;;;2.78;1.50;;;16.60;99.90;;;;;;5096056;28;20426;-61
2021/09/05 02:09:22;;;;;;;3.17;1.80;;;16.60;99.90;;;;;;5096941;28;20513;-61
2021/09/05 02:11:51;;;;;;;2.50;1.50;;;16.60;99.90;;;;;;5096064;28;20426;-61
2021/09/05 02:14:17;;;;;;;2.30;1.50;;;16.50;99.90;;;;;;5095788;28;20421;-61
2021/09/05 02:16:45;;;;;;;2.60;1.60;;;16.40;99.90;;;;;;5096580;28;20487;-61
2021/09/05 02:19:13;;;;;;;2.10;1.50;;;16.40;99.90;;;;;;5095808;28;20418;-61
2021/09/05 02:21:41;;;;;;;2.22;1.52;;;16.50;99.90;;;;;;5094152;28;20724;-61
2021/09/05 02:24:08;;;;;;;3.05;1.70;;;16.50;99.90;;;;;;5095529;28;20433;-60
2021/09/05 02:26:35;;;;;;;3.83;1.63;;;16.60;99.90;;;;;;5095333;28;20429;-60
2021/09/05 02:29:02;;;;;;;2.80;1.52;;;16.70;99.90;;;;;;5095929;28;20418;-61
2021/09/05 02:31:28;;;;;;;4.90;1.60;;;16.70;99.90;;;;;;5096168;28;20479;-61
2021/09/05 02:33:55;;;;;;;2.00;1.80;;;16.80;99.90;;;;;;5096145;28;20453;-61
2021/09/05 02:36:25;;;;;;;3.10;2.10;;;16.70;99.90;;;;;;5096671;28;20426;-61
2021/09/05 02:38:52;;;;;;;3.00;1.90;;;16.70;99.90;;;;;;5096038;28;20890;-61
2021/09/05 02:41:19;;;;;;;2.03;1.60;;;16.80;99.90;;;;;;5096248;28;20417;-60
2021/09/05 02:43:45;;;;;;;3.50;2.42;;;16.80;99.90;;;;;;5095753;28;20722;-60
2021/09/05 02:46:12;;;;;;;2.63;1.60;;;16.80;99.90;;;;;;5095438;28;20426;-61
2021/09/05 02:48:40;;;;;;;3.03;2.22;;;16.70;99.90;;;;;;5095697;28;20460;-61
2021/09/05 02:51:07;;;;;;;2.35;1.88;;;16.60;99.90;;;;;;5094966;28;20433;-61
2021/09/05 02:53:35;;;;;;;2.17;1.70;;;16.70;99.90;;;;;;5095653;28;20424;-61
2021/09/05 02:56:02;;;;;;;2.60;1.70;;;16.80;99.90;;;;;;5095543;28;20432;-61
2021/09/05 02:58:29;;;;;;;3.10;1.70;;;16.80;99.90;;;;;;5096308;28;20440;-61
2021/09/05 03:00:56;;;;;;;2.92;1.88;;;16.80;99.90;;;;;;5095795;28;20517;-61
2021/09/05 03:03:23;;;;;;;2.38;1.40;;;16.70;99.90;;;;;;5095886;28;20508;-61
2021/09/05 03:05:49;;;;;;;2.20;1.50;;;16.60;99.90;;;;;;5095978;28;20433;-61
2021/09/05 03:08:17;;;;;;;2.60;1.60;;;16.80;99.90;;;;;;5096222;28;20492;-61
2021/09/05 03:10:45;;;;;;;5.00;1.50;;;16.70;99.90;;;;;;5095404;28;20428;-61
2021/09/05 03:13:12;;;;;;;1.92;1.42;;;16.70;99.90;;;;;;5095444;28;20418;-61
2021/09/05 03:15:38;;;;;;;2.40;1.60;;;16.60;99.90;;;;;;5094333;28;20424;-61
2021/09/05 03:18:05;;;;;;;2.70;1.50;;;16.60;99.90;;;;;;5094988;28;20729;-61
2021/09/05 03:20:32;;;;;;;2.50;1.60;;;16.60;99.90;;;;;;5094602;28;20995;-61
2021/09/05 03:22:59;;;;;;;2.00;1.50;;;16.50;99.90;;;;;;5092674;28;20426;-61
2021/09/05 03:25:26;;;;;;;2.28;1.50;;;16.50;99.90;;;;;;5094839;28;20434;-61
2021/09/05 03:27:55;;;;;;;2.70;1.60;;;16.50;99.90;;;;;;5094429;28;20422;-61
2021/09/05 03:30:22;;;;;;;1.75;1.40;;;16.50;99.90;;;;;;5094427;28;20489;-61
2021/09/05 03:32:49;;;;;;;2.30;1.60;;;16.60;99.90;;;;;;5095148;28;20464;-61
2021/09/05 03:35:15;;;;;;;2.17;1.50;;;16.50;99.90;;;;;;5094221;28;20820;-61
2021/09/05 03:37:42;;;;;;;2.20;1.50;;;16.50;99.90;;;;;;5094089;28;20532;-61
2021/09/05 03:40:10;;;;;;;3.28;1.60;;;16.40;99.90;;;;;;5094872;28;20418;-60
2021/09/05 03:42:37;;;;;;;1.73;1.40;;;16.30;99.90;;;;;;5095402;28;20844;-61
2021/09/05 03:45:06;;;;;;;2.00;1.40;;;16.20;99.90;;;;;;5095105;28;20430;-61
2021/09/05 03:47:33;;;;;;;2.10;1.53;;;16.20;99.90;;;;;;5095524;28;20492;-61
2021/09/05 03:50:00;;;;;;;2.10;1.60;;;16.20;99.90;;;;;;5095417;28;20420;-61
2021/09/05 03:52:28;;;;;;;2.50;1.50;;;16.10;99.90;;;;;;5095372;28;20837;-61
2021/09/05 03:54:55;;;;;;;2.88;1.70;;;16.10;99.90;;;;;;5094837;28;20421;-61
2021/09/05 03:57:22;;;;;;;2.13;1.35;;;16.10;99.90;;;;;;5094660;28;20520;-61
2021/09/05 03:59:49;;;;;;;1.90;1.30;;;16.10;99.90;;;;;;5093389;28;20418;-61
2021/09/05 04:02:17;;;;;;;2.50;1.40;;;16.10;99.90;;;;;;5093380;28;20426;-61
2021/09/05 04:04:44;;;;;;;2.33;1.40;;;16.20;99.90;;;;;;5093749;28;20436;-61
2021/09/05 04:07:14;;;;;;;3.40;1.50;;;16.20;99.90;;;;;;5094458;28;20722;-61
2021/09/05 04:12:25;;;;;;;2.30;1.60;;;16.30;99.90;;;;;;5094392;28;20409;-60
2021/09/05 04:14:52;;;;;;;2.72;1.55;;;16.20;99.90;;;;;;5094663;28;20844;-61
2021/09/05 04:17:20;;;;;;;2.50;1.70;;;16.10;99.90;;;;;;5094913;28;20432;-61
2021/09/05 04:19:47;;;;;;;3.30;1.60;;;16.00;99.90;;;;;;5093701;28;20725;-61
2021/09/05 04:22:13;;;;;;;2.60;1.88;;;16.00;99.90;;;;;;5091727;28;20529;-61
2021/09/05 04:24:41;;;;;;;2.70;1.80;;;15.90;99.90;;;;;;5093126;28;20780;-61
2021/09/05 04:27:07;;;;;;;1.90;1.60;;;15.80;99.90;;;;;;5092766;28;20425;-61
2021/09/05 04:29:34;;;;;;;2.60;1.83;;;15.80;99.90;;;;;;5093576;28;20885;-61
2021/09/05 04:32:01;;;;;;;2.45;1.70;;;15.80;99.90;;;;;;5092939;28;20425;-61
2021/09/05 04:34:29;;;;;;;1.92;1.50;;;15.80;99.90;;;;;;5093919;28;20420;-61
2021/09/05 04:36:56;;;;;;;3.30;1.92;;;15.90;99.90;;;;;;5094565;28;20436;-61
2021/09/05 04:39:23;;;;;;;2.70;1.70;;;15.90;99.90;;;;;;5094063;28;20436;-61
2021/09/05 04:41:50;;;;;;;2.63;1.45;;;15.90;99.90;;;;;;5094743;28;20728;-61
2021/09/05 04:44:17;;;;;;;2.00;1.60;;;15.80;99.90;;;;;;5094580;28;20516;-61
2021/09/05 04:46:44;;;;;;;2.10;1.50;;;15.80;99.90;;;;;;5094292;28;20428;-61
2021/09/05 04:49:11;;;;;;;2.95;1.92;;;15.70;99.90;;;;;;5094613;28;20721;-61
2021/09/05 04:51:40;;;;;;;2.20;1.50;;;15.70;99.90;;;;;;5095112;28;20432;-61
2021/09/05 04:54:07;;;;;;;2.95;1.70;;;15.70;99.90;;;;;;5094834;28;20897;-61
2021/09/05 04:56:33;;;;;;;2.90;1.73;;;15.70;99.90;;;;;;5094451;28;20425;-61
2021/09/05 04:59:00;;;;;;;2.90;1.70;;;15.60;99.90;;;;;;5094102;28;20453;-61
2021/09/05 05:01:27;;;;;;;2.67;1.50;;;15.70;99.90;;;;;;5094457;28;20864;-61
2021/09/05 05:03:54;;;;;;;3.30;1.40;;;15.90;99.90;;;;;;5094437;28;20473;-61
2021/09/05 05:06:21;;;;;;;2.20;1.50;;;16.00;99.90;;;;;;5094334;28;20440;-61
2021/09/05 05:08:51;;;;;;;2.72;1.50;;;16.00;99.90;;;;;;5094594;28;20424;-61
2021/09/05 05:11:18;;;;;;;2.85;1.70;;;16.10;99.90;;;;;;5094661;28;20730;-61
2021/09/05 05:13:45;;;;;;;2.70;1.70;;;16.10;99.90;;;;;;5094178;28;20417;-61
2021/09/05 05:16:12;;;;;;;1.90;1.40;;;16.10;99.90;;;;;;5094291;28;20430;-61
2021/09/05 05:18:39;;;;;;;1.90;1.60;;;15.90;99.90;;;;;;5094345;28;20418;-61
2021/09/05 05:21:06;;;;;;;2.22;1.70;;;15.80;99.90;;;;;;5095723;28;20426;-60
2021/09/05 05:23:33;;;;;;;2.30;1.60;;;15.70;99.90;;;;;;5097738;28;20509;-60
2021/09/05 05:26:01;;;;;;;2.20;1.50;;;15.70;99.90;;;;;;5096908;28;20436;-61
2021/09/05 05:28:28;;;;;;;4.80;1.63;;;15.60;99.90;;;;;;5096431;28;20426;-61
2021/09/05 05:30:55;;;;;;;4.30;1.70;;;15.70;99.90;;;;;;5096042;28;20867;-61
2021/09/05 05:33:22;;;;;;;2.28;1.50;;;15.90;99.90;;;;;;5095895;28;20523;-61
2021/09/05 05:35:49;;;;;;;2.50;2.00;;;16.20;99.90;;;;;;5094842;28;20860;-61
2021/09/05 05:38:15;;;;;;;2.40;2.03;;;16.10;99.90;;;;;;5094826;28;20721;-61
2021/09/05 05:40:43;;;;;;;2.70;1.90;;;16.10;99.90;;;;;;5095126;28;20468;-60
2021/09/05 05:43:11;;;;;;;2.30;1.40;;;16.10;99.90;;;;;;5095919;28;20424;-61
2021/09/05 05:45:38;;;;;;;2.50;1.60;;;16.20;99.90;;;;;;5096516;28;20434;-60
2021/09/05 05:48:05;;;;;;;2.35;1.73;;;16.20;99.90;;;;;;5096330;28;20425;-60
2021/09/05 05:50:32;;;;;;;2.10;1.50;;;16.10;99.90;;;;;;5097223;28;20425;-61
2021/09/05 05:52:59;;;;;;;2.60;1.75;;;16.10;99.90;;;;;;5096386;28;20418;-61
2021/09/05 05:55:26;;;;;;;2.20;1.63;;;16.00;99.90;;;;;;5095358;28;20444;-61
2021/09/05 05:57:53;;;;;;;2.22;1.65;;;16.00;99.90;;;;;;5096612;28;20422;-61
2021/09/05 06:00:25;;;;;;;3.50;1.70;;;16.00;99.90;;;;;;5097042;28;20410;-60
2021/09/05 06:02:51;;;;;;;3.60;2.10;;;16.00;99.90;;;;;;5095753;28;20440;-61
2021/09/05 06:05:18;;;;;;;2.38;1.88;;;16.10;99.90;;;;;;5096938;28;20436;-61
2021/09/05 06:07:45;;;;;;;2.33;1.75;;;16.10;99.90;;;;;;5096786;28;20717;-61
2021/09/05 06:10:12;;;;;;;2.58;2.22;;;16.10;99.90;;;;;;5097013;28;20497;-61
2021/09/05 06:12:40;;;;;;;3.45;1.70;;;15.90;99.90;;;;;;5096601;28;20476;-61
2021/09/05 06:15:07;;;;;;;2.50;2.00;;;15.90;99.90;;;;;;5096278;28;20501;-60
2021/09/05 06:17:36;;;;;;;2.00;1.80;;;16.00;99.90;;;;;;5095214;28;20417;-61
2021/09/05 06:20:03;;;;;;;3.30;1.80;;;16.10;99.90;;;;;;5095843;28;20414;-61
2021/09/05 06:22:30;;;;;;;3.73;1.97;;;16.20;99.90;;;;;;5094518;28;20424;-61
2021/09/05 06:24:57;;;;;;;2.63;2.00;;;16.20;99.90;;;;;;5094155;28;20439;-60
2021/09/05 06:27:23;;;;;;;2.53;2.00;;;16.20;99.90;;;;;;5095177;28;20962;-60
2021/09/05 06:29:50;;;;;;;3.15;2.13;;;16.20;99.90;;;;;;5094692;28;20428;-61
2021/09/05 06:32:17;;;;;;;2.20;1.90;;;16.20;99.90;;;;;;5093338;28;20860;-61
2021/09/05 06:34:45;;;;;;;2.90;2.08;;;16.20;99.90;;;;;;5094507;28;20418;-61
2021/09/05 06:37:12;;;;;;;2.50;1.85;;;16.40;99.90;;;;;;5095247;28;20432;-61
2021/09/05 06:39:39;;;;;;;2.83;2.10;;;16.50;99.90;;;;;;5095626;28;20417;-61
2021/09/05 06:42:08;;;;;;;2.58;2.03;;;16.50;99.90;;;;;;5095986;28;20457;-62
2021/09/05 06:44:34;;;;;;;2.50;1.50;;;16.60;99.90;;;;;;5094756;28;20432;-61
2021/09/05 06:47:01;;;;;;;3.13;1.88;;;16.60;99.90;;;;;;5093736;28;20440;-62
2021/09/05 06:49:28;;;;;;;2.28;2.00;;;16.60;99.90;;;;;;5093377;28;20452;-61
2021/09/05 06:51:56;;;;;;;2.97;2.10;;;16.60;99.90;;;;;;5091827;28;20867;-61
2021/09/05 06:54:23;;;;;;;2.40;1.80;;;16.70;99.90;;;;;;5093032;28;20421;-61
2021/09/05 06:56:50;;;;;;;4.00;2.45;;;16.90;99.90;;;;;;5094321;28;20428;-60
2021/09/05 06:59:17;;;;;;;2.50;1.90;;;17.00;99.90;;;;;;5094339;28;20428;-61
2021/09/05 07:01:44;;;;;;;2.33;1.90;;;17.10;99.90;;;;;;5093736;28;20428;-61
2021/09/05 07:04:12;;;;;;;2.55;1.83;;;17.20;99.90;;;;;;5095475;28;20717;-60
2021/09/05 07:06:39;;;;;;;4.90;2.20;;;17.30;99.90;;;;;;5095475;28;20434;-61
2021/09/05 07:09:07;;;;;;;3.85;2.05;;;17.30;99.90;;;;;;5095805;28;20717;-61
2021/09/05 07:11:34;;;;;;;4.03;2.20;;;17.40;99.90;;;;;;5095508;28;20699;-60
2021/09/05 07:14:00;;;;;;;2.50;1.83;;;17.50;99.90;;;;;;5095412;28;20418;-61
2021/09/05 07:16:28;;;;;;;3.23;1.60;;;17.60;99.90;;;;;;5095130;28;20429;-62
2021/09/05 07:18:54;;;;;;;2.53;2.00;;;17.90;99.90;;;;;;5095298;28;20703;-61
2021/09/05 07:21:21;;;;;;;2.70;1.90;;;18.10;99.90;;;;;;5092528;28;20418;-61
2021/09/05 07:23:48;;;;;;;3.30;2.22;;;18.30;99.90;;;;;;5094977;28;20420;-61
2021/09/05 07:26:17;;;;;;;3.20;2.10;;;18.30;99.90;;;;;;5094931;28;20418;-61
2021/09/05 07:28:44;;;;;;;3.55;2.00;;;18.30;99.90;;;;;;5094429;28;20421;-61
2021/09/05 07:31:10;;;;;;;2.20;1.60;;;18.30;99.90;;;;;;5093375;28;20425;-61
2021/09/05 07:33:37;;;;;;;2.80;1.80;;;18.30;99.90;;;;;;5092281;28;20421;-61
2021/09/05 07:36:05;;;;;;;2.63;1.48;;;18.50;99.90;;;;;;5091760;28;20720;-61
2021/09/05 07:38:31;;;;;;;2.20;1.70;;;18.60;99.90;;;;;;5102268;28;20419;-61
2021/09/05 07:40:58;;;;;;;3.15;2.30;;;18.80;99.90;;;;;;5092631;28;20436;-61
2021/09/05 07:43:26;;;;;;;3.35;1.90;;;18.70;99.90;;;;;;5091495;28;20424;-61
2021/09/05 07:45:53;;;;;;;3.25;2.53;;;18.60;99.90;;;;;;5091821;28;20859;-61
2021/09/05 07:48:20;;;;;;;2.97;1.80;;;18.60;99.90;;;;;;5092764;28;20422;-61
2021/09/05 07:50:47;;;;;;;2.47;1.65;;;18.60;99.90;;;;;;5092684;28;20426;-61
2021/09/05 07:53:15;;;;;;;2.72;2.03;;;18.70;99.90;;;;;;5093889;28;20428;-61
2021/09/05 07:55:42;;;;;;;2.22;1.80;;;18.80;99.90;;;;;;5092849;28;20433;-61
2021/09/05 07:58:09;;;;;;;2.57;1.70;;;18.90;99.90;;;;;;5090941;28;20488;-61
2021/09/05 08:00:37;;;;;;;2.90;2.45;;;19.00;99.90;;;;;;5093460;28;20425;-61
2021/09/05 08:03:04;;;;;;;2.72;2.00;;;19.20;99.90;;;;;;5093283;28;20409;-61
2021/09/05 08:05:31;;;;;;;3.78;1.80;;;19.30;99.90;;;;;;5092918;28;20453;-61
2021/09/05 08:07:58;;;;;;;1.92;1.50;;;19.40;99.90;;;;;;5093074;28;20845;-61
2021/09/05 08:10:25;;;;;;;2.28;1.65;;;19.50;99.90;;;;;;5092261;28;20437;-61
2021/09/05 08:12:52;;;;;;;1.67;1.30;;;19.70;99.90;;;;;;5093316;28;20422;-61
2021/09/05 08:15:20;;;;;;;2.90;1.50;;;19.90;99.90;;;;;;5094159;28;20942;-60
2021/09/05 08:17:48;;;;;;;3.20;1.80;;;19.90;99.90;;;;;;5092540;28;20508;-60
2021/09/05 08:20:15;;;;;;;4.50;2.08;;;20.00;99.90;;;;;;5091126;28;20422;-60
2021/09/05 08:22:45;;;;;;;2.05;1.60;;;20.00;99.90;;;;;;5089593;28;20417;-60
2021/09/05 08:25:12;;;;;;;2.30;1.40;;;19.90;99.90;;;;;;5091172;28;20524;-60
2021/09/05 08:27:39;;;;;;;1.73;1.20;;;20.00;99.90;;;;;;5090406;28;20452;-60
2021/09/05 08:30:07;;;;;;;2.72;1.70;;;20.10;99.90;;;;;;5090225;28;20425;-60
2021/09/05 08:32:34;;;;;;;3.10;1.40;;;20.40;99.90;;;;;;5089733;28;20825;-62
2021/09/05 08:35:03;;;;;;;1.77;1.38;;;20.60;99.90;;;;;;5091864;28;20417;-62
2021/09/05 08:37:30;;;;;;;2.37;1.70;;;20.60;99.90;;;;;;5094395;28;20440;-61
2021/09/05 08:39:57;;;;;;;3.10;1.90;;;20.60;99.90;;;;;;5109482;28;20718;-62
2021/09/05 08:42:24;;;;;;;1.90;1.40;;;20.70;99.90;;;;;;5113620;28;20431;-62
2021/09/05 08:44:51;;;;;;;2.08;1.83;;;20.80;99.90;;;;;;5111002;28;20515;-61
2021/09/05 08:47:18;;;;;;;2.92;1.75;;;20.80;99.90;;;;;;5112260;28;20455;-61
2021/09/05 08:49:47;;;;;;;2.10;1.50;;;20.80;99.90;;;;;;5111961;28;20416;-61
2021/09/05 08:52:17;;;;;;;1.85;1.58;;;20.80;99.90;;;;;;5109781;28;20818;-61
2021/09/05 08:54:44;;;;;;;2.80;1.60;;;20.90;99.90;;;;;;5112398;28;20432;-62
2021/09/05 08:57:10;;;;;;;1.70;1.42;;;20.80;99.90;;;;;;5115319;28;20420;-61
2021/09/05 08:59:37;;;;;;;2.22;1.25;;;20.80;99.90;;;;;;5104393;28;20837;-61
2021/09/05 09:02:04;;;;;;;1.90;1.38;;;20.90;99.90;;;;;;5094712;28;20428;-63
2021/09/05 09:04:36;;;;;;;2.17;1.42;;;21.10;99.90;;;;;;5100914;28;20447;-62
2021/09/05 09:07:15;;;;;;;2.00;1.23;;;21.30;99.90;;;;;;5116089;28;20439;-62
2021/09/05 09:09:58;;;;;;;2.30;1.40;;;21.50;99.90;;;;;;5117200;28;20416;-63
2021/09/05 09:12:37;;;;;;;1.80;1.20;;;21.60;99.90;;;;;;5102725;28;20865;-62
2021/09/05 09:15:17;;;;;;;2.00;1.40;;;21.70;99.90;;;;;;5096262;28;20425;-61
2021/09/05 09:17:44;;;;;;;2.00;1.20;;;21.90;99.90;;;;;;5115184;28;20479;-61
2021/09/05 09:20:12;;;;;;;1.73;1.40;;;22.00;99.90;;;;;;5116382;28;20482;-61
2021/09/05 09:22:40;;;;;;;1.70;1.20;;;22.20;99.90;;;;;;5115290;28;20419;-61
2021/09/05 09:25:09;;;;;;;2.33;1.50;;;22.20;99.90;;;;;;5113661;28;20519;-61
2021/09/05 09:27:36;;;;;;;1.60;1.10;;;22.20;99.90;;;;;;5112290;28;20488;-62
2021/09/05 09:30:14;;;;;;;1.40;1.13;;;22.30;99.90;;;;;;5108176;28;20617;-61
2021/09/05 09:32:48;;;;;;;1.90;1.40;;;22.50;99.90;;;;;;5115018;28;20436;-62
2021/09/05 09:35:15;;;;;;;1.80;1.10;;;22.60;99.90;;;;;;5116059;28;20844;-62
2021/09/05 09:37:47;;;;;;;2.30;1.52;;;22.80;99.90;;;;;;5114360;28;20477;-62
2021/09/05 09:40:25;;;;;;;1.85;1.20;;;23.10;99.90;;;;;;5096185;28;20841;-60
2021/09/05 09:42:52;;;;;;;1.95;1.20;;;23.40;99.90;;;;;;5102466;28;20469;-63
2021/09/05 09:45:22;;;;;;;1.77;1.40;;;23.60;99.90;;;;;;5099403;28;20464;-63
2021/09/05 09:47:52;;;;;;;1.40;1.10;;;23.70;99.90;;;;;;5107228;28;20527;-60
2021/09/05 09:50:25;;;;;;;1.60;1.23;;;23.80;99.90;;;;;;5114268;28;20426;-60
2021/09/05 09:52:56;;;;;;;1.40;1.00;;;23.80;99.90;;;;;;5100646;28;20424;-63
2021/09/05 09:55:27;;;;;;;1.60;1.20;;;23.70;99.90;;;;;;5098241;28;20469;-61
2021/09/05 09:57:54;;;;;;;1.85;1.20;;;23.70;99.90;;;;;;5090646;28;20525;-61
2021/09/05 10:00:21;;;;;;;1.60;1.20;;;23.90;99.90;;;;;;5099508;28;20418;-60
2021/09/05 10:02:49;;;;;;;1.50;1.10;;;23.90;99.90;;;;;;5093519;28;20440;-60
2021/09/05 10:05:16;;;;;;;1.50;1.10;;;23.90;99.90;;;;;;5092356;28;20421;-61
2021/09/05 10:07:43;;;;;;;1.40;1.05;;;23.90;99.90;;;;;;5093727;28;20425;-61
2021/09/05 10:10:15;;;;;;;2.40;1.20;;;23.80;99.90;;;;;;5093517;28;20677;-61
2021/09/05 10:12:43;;;;;;;3.40;1.17;;;23.90;99.90;;;;;;5092409;28;21005;-60
2021/09/05 10:15:11;;;;;;;1.50;1.15;;;24.10;99.90;;;;;;5091878;28;20425;-60
2021/09/05 10:17:38;;;;;;;1.10;0.98;;;24.60;99.90;;;;;;5092492;28;20406;-60
2021/09/05 10:20:07;;;;;;;1.90;1.10;;;25.10;99.90;;;;;;5094422;28;20418;-61
2021/09/05 10:22:34;;;;;;;1.40;1.00;;;25.30;99.90;;;;;;5090817;28;20428;-60
2021/09/05 10:25:03;;;;;;;2.30;1.00;;;25.00;99.90;;;;;;5092685;28;20428;-61
2021/09/05 10:27:33;;;;;;;1.83;0.85;;;24.80;99.90;;;;;;5092863;28;20726;-61
2021/09/05 10:30:11;;;;;;;1.25;0.80;;;24.80;99.90;;;;;;5091805;28;20763;-61
2021/09/05 10:32:47;;;;;;;1.17;1.00;;;25.30;99.90;;;;;;5090848;28;20433;-60
2021/09/05 10:35:31;;;;;;;1.30;1.00;;;25.70;99.90;;;;;;5092989;28;20725;-60
2021/09/05 10:38:22;;;;;;;1.40;1.00;;;26.10;99.90;;;;;;5093970;28;20725;-60
2021/09/05 10:40:51;;;;;;;1.80;1.10;;;26.50;99.90;;;;;;5093673;28;20844;-61
2021/09/05 10:43:20;;;;;;;1.30;1.00;;;26.80;99.90;;;;;;5093027;28;20418;-59
2021/09/05 10:45:49;;;;;;;1.25;1.00;;;27.20;99.90;;;;;;5094849;28;20440;-60
2021/09/05 10:48:36;;;;;;;1.60;1.00;;;27.60;99.90;;;;;;5093176;28;20590;-60
2021/09/05 10:51:08;;;;;;;1.90;0.90;;;27.70;99.90;;;;;;5092802;28;20486;-62
2021/09/05 10:53:37;;;;;;;1.23;1.00;;;27.50;99.90;;;;;;5092299;28;20426;-61
2021/09/05 10:56:11;;;;;;;1.50;0.90;;;27.10;99.90;;;;;;5092686;28;20434;-62
2021/09/05 10:58:41;;;;;;;1.20;0.90;;;27.00;99.90;;;;;;5093479;28;20871;-61
2021/09/05 11:01:29;;;;;;;1.30;0.80;;;26.80;99.90;;;;;;5094419;28;20426;-60
2021/09/05 11:04:28;;;;;;;1.10;0.80;;;26.70;99.90;;;;;;5102481;28;20422;-59
2021/09/05 11:06:57;;;;;;;1.08;0.90;;;27.00;99.90;;;;;;5094541;28;20922;-62
2021/09/05 11:09:44;;;;;;;1.10;0.90;;;27.20;99.90;;;;;;5095230;28;20733;-61
2021/09/05 11:12:15;;;;;;;1.13;0.90;;;27.30;99.90;;;;;;5105176;28;20434;-59
2021/09/05 11:15:17;;;;;;;1.58;0.80;;;27.30;99.80;;;;;;5115038;28;20416;-60
2021/09/05 11:17:56;;;;;;;1.25;0.80;;;27.30;98.50;;;;;;5111026;28;20527;-60
2021/09/05 11:20:23;;;;;;;1.20;0.90;;;27.70;99.00;;;;;;5107587;28;20701;-60
2021/09/05 11:22:50;;;;;;;1.40;0.90;;;27.90;98.40;;;;;;5111791;28;20690;-60
2021/09/05 11:25:20;;;;;;;1.10;0.80;;;28.00;97.10;;;;;;5113510;28;20887;-60
2021/09/05 11:27:53;;;;;;;1.10;0.80;;;27.50;96.60;;;;;;5114300;28;20759;-60
2021/09/05 11:30:22;;;;;;;1.00;0.80;;;27.70;96.10;;;;;;5111926;28;20820;-60
2021/09/05 11:32:50;;;;;;;1.20;0.80;;;27.80;95.80;;;;;;5113621;28;20428;-60
2021/09/05 11:35:16;;;;;;;1.00;0.70;;;27.90;94.90;;;;;;5113382;28;20462;-60
2021/09/05 11:37:45;;;;;;;1.00;0.77;;;28.00;93.80;;;;;;5113924;28;20434;-60
2021/09/05 11:40:14;;;;;;;1.70;0.80;;;27.90;93.50;;;;;;5099653;28;20425;-60
2021/09/05 11:42:47;;;;;;;1.20;0.90;;;27.30;92.50;;;;;;5092329;28;20417;-60
2021/09/05 11:45:15;;;;;;;1.08;0.75;;;27.00;94.60;;;;;;5106546;28;20430;-60
2021/09/05 11:47:44;;;;;;;1.10;0.70;;;27.20;95.30;;;;;;5100762;28;21056;-60
2021/09/05 11:50:13;;;;;;;1.50;0.70;;;27.40;91.10;;;;;;5090500;28;20698;-60
2021/09/05 11:52:41;;;;;;;1.10;0.80;;;27.60;91.00;;;;;;5088210;28;20436;-61
2021/09/05 11:55:14;;;;;;;1.30;0.70;;;27.40;89.60;;;;;;5072390;28;20996;-60
2021/09/05 11:57:53;;;;;;;1.40;0.80;;;27.30;90.40;;;;;;5101287;28;20436;-61
2021/09/05 12:00:29;;;;;;;1.50;0.80;;;27.50;91.30;;;;;;5093834;28;20418;-61
2021/09/05 12:02:57;;;;;;;2.40;0.70;;;27.70;92.40;;;;;;5092613;28;20428;-61
2021/09/05 12:05:25;;;;;;;2.50;0.70;;;27.90;91.00;;;;;;5091920;28;20799;-60
2021/09/05 12:07:52;;;;;;;0.90;0.70;;;28.10;89.50;;;;;;5091151;28;20522;-60
2021/09/05 12:10:21;;;;;;;1.10;0.80;;;28.20;90.30;;;;;;5092041;28;20410;-61
2021/09/05 12:13:00;;;;;;;1.10;0.77;;;28.30;90.00;;;;;;5093311;28;20426;-60
2021/09/05 12:15:31;;;;;;;1.30;0.80;;;28.50;85.20;;;;;;5092997;28;20434;-61
2021/09/05 12:18:00;;;;;;;1.13;0.77;;;28.30;84.40;;;;;;5093831;28;20414;-61
2021/09/05 12:20:40;;;;;;;0.93;0.70;;;28.20;86.10;;;;;;5093365;28;20437;-61
2021/09/05 12:23:19;;;;;;;0.90;0.70;;;28.30;84.90;;;;;;5095692;28;20422;-60
2021/09/05 12:25:46;;;;;;;1.00;0.70;;;28.00;81.20;;;;;;5104916;28;20433;-60
2021/09/05 12:28:21;;;;;;;1.17;0.70;;;27.80;82.70;;;;;;5094547;28;20470;-60
2021/09/05 12:30:54;;;;;;;0.90;0.70;;;28.00;85.40;;;;;;5093168;28;20418;-60
2021/09/05 12:33:32;;;;;;;1.00;0.80;;;28.30;84.90;;;;;;5093585;28;20866;-60
2021/09/05 12:36:10;;;;;;;1.10;0.80;;;28.20;86.00;;;;;;5094956;28;20441;-61
2021/09/05 12:38:38;;;;;;;1.55;0.70;;;28.50;84.90;;;;;;5093783;28;20720;-61
2021/09/05 12:41:07;;;;;;;1.20;0.80;;;28.70;79.70;;;;;;5093332;28;20504;-61
2021/09/05 12:43:42;;;;;;;1.55;0.80;;;28.70;81.00;;;;;;5094231;28;20425;-60
2021/09/05 12:46:09;;;;;;;10.65;8.38;;;27.90;77.00;;;;;;5092831;28;20434;-61
2021/09/05 12:48:39;;;;;;;1.20;0.80;;;27.70;76.90;;;;;;5103475;28;20436;-60
2021/09/05 12:51:09;;;;;;;2.27;2.07;;;27.90;76.60;;;;;;5092322;28;20431;-60
2021/09/05 12:53:36;;;;;;;0.90;0.70;;;28.20;78.20;;;;;;5076307;28;21554;-61
2021/09/05 12:56:04;;;;;;;1.40;0.67;;;28.50;77.40;;;;;;5103790;28;20455;-61
2021/09/05 12:58:31;;;;;;;1.02;0.77;;;28.70;76.10;;;;;;5095920;28;20431;-61